METAR Data
IDs: Format: Raw Decoded Include TAF

Data at: 0242 UTC 29 Nov 2020

METAR for:KAWG (Washington Muni, IA, US)
Text:KAWG 290235Z AUTO 21011KT 10SM CLR 06/01 A3003 RMK AO2
Temperature: 6.0°C ( 43°F)
Dewpoint: 1.0°C ( 34°F) [RH = 70%]
Pressure (altimeter):30.03 inches Hg (1017.0 mb)
Winds:from the SSW (210 degrees) at 13 MPH (11 knots; 5.7 m/s)
Visibility:10 or more sm (16+ km)
Ceiling:at least 12,000 feet AGL
Clouds:sky clear below 12,000 feet AGL
QC Flag:automated observation with no human augmentation